Time;durP1;ratioP1;P1;durP2;ratioP2;P2;SDS_P1;SDS_P2;PMS_P1;PMS_P2;Temp;Humidity;BMP_temperature;BMP_pressure;BME280_temperature;BME280_humidity;BME280_pressure;Samples;Min_cycle;Max_cycle;Signal;HPM_P1;HPM_P2
2023/03/01 00:00:14;;;;;;;;;;;18.30;45.00;;;;;;10123921;28;1910;-74
2023/03/01 02:52:29;;;;;;;;;;;18.10;45.70;;;;;;10443461;27;1410;-74
2023/03/01 02:57:24;;;;;;;;;;;18.10;44.90;;;;;;10443155;28;1905;-74
2023/03/01 03:02:21;;;;;;;;;;;18.10;45.00;;;;;;10443599;28;805;-73
2023/03/01 03:07:17;;;;;;;;;;;18.10;44.90;;;;;;10443478;27;844;-74
2023/03/01 03:12:12;;;;;;;;;;;18.10;45.10;;;;;;10444109;28;865;-74
2023/03/01 03:17:08;;;;;;;;;;;18.10;45.00;;;;;;10442917;28;1901;-73
2023/03/01 03:22:03;;;;;;;;;;;18.10;44.90;;;;;;10443405;28;928;-74
2023/03/01 03:26:58;;;;;;;;;;;18.10;45.00;;;;;;10442634;28;859;-74
2023/03/01 03:31:54;;;;;;;;;;;18.10;45.10;;;;;;10441892;28;951;-74
2023/03/01 03:36:49;;;;;;;;;;;18.00;45.00;;;;;;10442845;28;825;-74
2023/03/01 03:41:44;;;;;;;;;;;18.00;44.90;;;;;;10442003;28;1967;-73
2023/03/01 03:46:40;;;;;;;;;;;18.00;44.90;;;;;;10442543;28;860;-74
2023/03/01 03:51:35;;;;;;;;;;;18.00;45.00;;;;;;10423589;28;1405;-74
2023/03/01 03:56:30;;;;;;;;;;;18.00;44.90;;;;;;10413603;28;755;-73
2023/03/01 04:01:26;;;;;;;;;;;18.00;44.80;;;;;;10413385;28;1986;-74
2023/03/01 04:06:21;;;;;;;;;;;18.00;45.00;;;;;;10413257;28;798;-74
2023/03/01 04:11:25;;;;;;;;;;;18.00;45.00;;;;;;10414221;28;912;-74
2023/03/01 04:16:21;;;;;;;;;;;18.00;44.90;;;;;;10413517;28;854;-73
2023/03/01 04:21:16;;;;;;;;;;;18.00;44.90;;;;;;10413058;28;1905;-74
2023/03/01 04:26:12;;;;;;;;;;;18.00;44.80;;;;;;10412525;28;877;-74
2023/03/01 04:31:12;;;;;;;;;;;18.00;44.80;;;;;;10412925;28;857;-74
2023/03/01 04:36:08;;;;;;;;;;;17.90;45.00;;;;;;10412416;28;825;-73
2023/03/01 04:41:03;;;;;;;;;;;17.90;44.80;;;;;;10412557;28;1902;-74
2023/03/01 04:45:59;;;;;;;;;;;18.00;44.90;;;;;;10411741;28;863;-73
2023/03/01 04:50:54;;;;;;;;;;;17.90;45.00;;;;;;10412309;28;1245;-74
2023/03/01 04:55:50;;;;;;;;;;;17.90;44.80;;;;;;10411929;28;865;-74
2023/03/01 05:00:45;;;;;;;;;;;17.90;44.80;;;;;;10411128;28;1972;-73
2023/03/01 05:05:40;;;;;;;;;;;17.90;44.80;;;;;;10410459;28;996;-74
2023/03/01 05:10:36;;;;;;;;;;;18.00;44.80;;;;;;10411327;28;794;-73
2023/03/01 05:15:31;;;;;;;;;;;18.00;44.90;;;;;;10411045;28;821;-74
2023/03/01 05:20:26;;;;;;;;;;;18.00;44.80;;;;;;10410907;28;1985;-74
2023/03/01 05:25:22;;;;;;;;;;;18.00;45.30;;;;;;10410094;28;838;-74
2023/03/01 05:30:17;;;;;;;;;;;18.00;44.80;;;;;;10409938;28;801;-74
2023/03/01 05:35:13;;;;;;;;;;;18.00;44.80;;;;;;10410336;28;846;-75
2023/03/01 05:40:15;;;;;;;;;;;18.00;44.70;;;;;;10409524;28;1909;-75
2023/03/01 05:45:10;;;;;;;;;;;18.00;44.90;;;;;;10409332;28;1108;-74
2023/03/01 05:50:07;;;;;;;;;;;18.00;44.70;;;;;;10408595;28;1380;-75
2023/03/01 05:55:02;;;;;;;;;;;18.00;44.80;;;;;;10408647;28;1546;-74
2023/03/01 05:59:57;;;;;;;;;;;18.00;44.80;;;;;;10408724;28;1921;-74
2023/03/01 06:04:53;;;;;;;;;;;18.00;44.70;;;;;;10409323;28;845;-75
2023/03/01 06:09:48;;;;;;;;;;;18.00;44.70;;;;;;10407903;28;853;-75
2023/03/01 06:14:44;;;;;;;;;;;18.00;44.70;;;;;;10408693;28;1049;-77
2023/03/01 06:19:39;;;;;;;;;;;18.00;44.80;;;;;;10408084;28;1913;-76
2023/03/01 06:24:34;;;;;;;;;;;18.00;44.70;;;;;;10408159;28;968;-76
2023/03/01 06:29:30;;;;;;;;;;;18.00;44.70;;;;;;10408657;28;878;-76
2023/03/01 06:34:25;;;;;;;;;;;18.00;44.70;;;;;;10407856;28;801;-78
2023/03/01 06:39:20;;;;;;;;;;;18.00;44.70;;;;;;10408348;28;1913;-76
2023/03/01 06:44:16;;;;;;;;;;;17.90;44.70;;;;;;10407658;28;953;-76
2023/03/01 06:49:11;;;;;;;;;;;18.00;44.70;;;;;;10407982;28;1159;-76
2023/03/01 06:54:06;;;;;;;;;;;18.00;44.70;;;;;;10406205;28;1012;-77
2023/03/01 06:59:02;;;;;;;;;;;18.00;44.70;;;;;;10406774;28;1910;-75
2023/03/01 07:03:57;;;;;;;;;;;18.00;44.70;;;;;;10407282;28;900;-76
2023/03/01 07:08:53;;;;;;;;;;;17.90;44.70;;;;;;10406641;28;952;-76
2023/03/01 07:13:48;;;;;;;;;;;17.90;44.70;;;;;;10407044;28;1400;-75
2023/03/01 07:18:44;;;;;;;;;;;17.80;44.90;;;;;;10406851;28;1906;-75
2023/03/01 07:23:39;;;;;;;;;;;17.70;45.00;;;;;;10407599;28;881;-74
2023/03/01 07:28:38;;;;;;;;;;;17.70;44.90;;;;;;10414139;28;775;-75
2023/03/01 07:33:33;;;;;;;;;;;17.80;44.80;;;;;;10414617;28;793;-75
2023/03/01 07:38:28;;;;;;;;;;;17.80;44.80;;;;;;10414768;28;1898;-74
2023/03/01 07:43:24;;;;;;;;;;;17.80;45.00;;;;;;10414192;28;774;-71
2023/03/01 07:48:19;;;;;;;;;;;17.80;44.90;;;;;;10414075;28;1266;-75
2023/03/01 07:53:14;;;;;;;;;;;17.80;44.80;;;;;;10413795;28;911;-79
2023/03/01 07:58:10;;;;;;;;;;;17.80;44.70;;;;;;10414153;28;1973;-76
2023/03/01 08:03:05;;;;;;;;;;;17.80;44.80;;;;;;10413469;28;948;-77
2023/03/01 08:08:00;;;;;;;;;;;17.80;44.80;;;;;;10413263;28;747;-74
2023/03/01 08:12:56;;;;;;;;;;;17.80;44.80;;;;;;10413209;28;935;-76
2023/03/01 08:17:51;;;;;;;;;;;17.80;44.80;;;;;;10412964;28;1902;-76
2023/03/01 08:22:46;;;;;;;;;;;17.90;44.80;;;;;;10412724;28;838;-76
2023/03/01 08:27:42;;;;;;;;;;;17.80;44.70;;;;;;10412579;28;897;-76
2023/03/01 08:32:37;;;;;;;;;;;17.80;44.80;;;;;;10411727;28;971;-76
2023/03/01 08:37:33;;;;;;;;;;;17.90;44.90;;;;;;10412540;28;1906;-76
2023/03/01 08:42:28;;;;;;;;;;;17.80;44.70;;;;;;10411779;28;880;-76
2023/03/01 08:47:23;;;;;;;;;;;17.80;44.80;;;;;;10411044;28;1067;-76
2023/03/01 08:52:19;;;;;;;;;;;17.80;44.80;;;;;;10412908;28;1266;-75
2023/03/01 08:57:14;;;;;;;;;;;17.90;44.80;;;;;;10411352;28;839;-74
2023/03/01 09:02:09;;;;;;;;;;;18.00;44.80;;;;;;10411037;28;1910;-80
2023/03/01 09:07:05;;;;;;;;;;;18.10;44.80;;;;;;10411516;28;822;-78
2023/03/01 09:12:00;;;;;;;;;;;18.00;44.70;;;;;;10411485;28;944;-76
2023/03/01 09:16:56;;;;;;;;;;;18.00;44.70;;;;;;10411247;28;852;-76
2023/03/01 09:21:52;;;;;;;;;;;18.00;44.80;;;;;;10410242;28;1981;-75
2023/03/01 09:26:47;;;;;;;;;;;18.00;44.90;;;;;;10410848;28;808;-76
2023/03/01 09:31:43;;;;;;;;;;;18.00;44.90;;;;;;10409286;28;1161;-76
2023/03/01 09:36:38;;;;;;;;;;;18.10;45.00;;;;;;10409688;28;964;-74
2023/03/01 09:41:34;;;;;;;;;;;18.10;45.10;;;;;;10409485;28;1972;-76
2023/03/01 09:46:29;;;;;;;;;;;18.00;45.00;;;;;;10409416;28;852;-73
2023/03/01 09:51:24;;;;;;;;;;;18.00;45.10;;;;;;10409386;28;1407;-77
2023/03/01 09:56:20;;;;;;;;;;;18.00;45.10;;;;;;10408885;28;941;-77
2023/03/01 10:01:16;;;;;;;;;;;17.90;45.40;;;;;;10408750;28;1918;-77
2023/03/01 10:06:11;;;;;;;;;;;17.90;45.40;;;;;;10409251;28;814;-77
2023/03/01 10:11:06;;;;;;;;;;;17.80;45.40;;;;;;10408633;28;876;-76
2023/03/01 10:16:02;;;;;;;;;;;17.80;45.40;;;;;;10409025;28;892;-75
2023/03/01 10:20:57;;;;;;;;;;;17.80;45.30;;;;;;10407570;28;1907;-78
2023/03/01 10:25:53;;;;;;;;;;;17.80;45.40;;;;;;10409462;28;877;-78
2023/03/01 10:30:48;;;;;;;;;;;17.80;45.40;;;;;;10408028;28;889;-81
2023/03/01 10:35:44;;;;;;;;;;;17.80;45.40;;;;;;10407953;28;848;-77
2023/03/01 10:40:39;;;;;;;;;;;17.70;45.50;;;;;;10408320;28;1909;-77
2023/03/01 10:45:35;;;;;;;;;;;17.70;45.50;;;;;;10408262;28;857;-77
2023/03/01 10:50:30;;;;;;;;;;;17.70;45.60;;;;;;10408342;28;1289;-77
2023/03/01 10:55:26;;;;;;;;;;;17.60;45.70;;;;;;10408028;28;957;-79
2023/03/01 11:00:22;;;;;;;;;;;17.60;45.60;;;;;;10409608;28;1909;-77
2023/03/01 11:05:19;;;;;;;;;;;17.70;45.60;;;;;;10415754;28;865;-77
2023/03/01 11:10:14;;;;;;;;;;;17.60;45.60;;;;;;10415575;28;833;-77
2023/03/01 11:15:10;;;;;;;;;;;17.60;45.70;;;;;;10415355;28;877;-77
2023/03/01 11:20:05;;;;;;;;;;;17.60;45.70;;;;;;10415776;28;1959;-84
2023/03/01 11:25:01;;;;;;;;;;;17.70;45.70;;;;;;10414947;28;969;-79
2023/03/01 11:29:56;;;;;;;;;;;17.60;45.60;;;;;;10414803;28;728;-79
2023/03/01 11:34:51;;;;;;;;;;;17.70;45.70;;;;;;10414026;28;950;-79
2023/03/01 11:39:47;;;;;;;;;;;17.60;45.70;;;;;;10414281;28;1894;-79
2023/03/01 11:44:42;;;;;;;;;;;17.70;45.70;;;;;;10414759;28;906;-79
2023/03/01 11:49:38;;;;;;;;;;;17.70;45.70;;;;;;10414081;28;1112;-79
2023/03/01 11:54:33;;;;;;;;;;;17.70;45.80;;;;;;10413862;28;873;-78
2023/03/01 11:59:28;;;;;;;;;;;17.70;45.70;;;;;;10413628;28;1983;-79
2023/03/01 12:04:24;;;;;;;;;;;17.70;45.70;;;;;;10414111;28;963;-79
2023/03/01 12:09:19;;;;;;;;;;;17.70;45.70;;;;;;10412729;28;992;-79
2023/03/01 12:14:14;;;;;;;;;;;17.70;45.70;;;;;;10412665;28;826;-78
2023/03/01 12:19:10;;;;;;;;;;;17.70;45.70;;;;;;10413425;28;1905;-79
2023/03/01 12:24:05;;;;;;;;;;;17.80;45.70;;;;;;10412565;28;905;-79
2023/03/01 12:29:01;;;;;;;;;;;17.80;45.70;;;;;;10412528;28;793;-79
2023/03/01 12:33:56;;;;;;;;;;;17.80;45.70;;;;;;10413012;28;884;-79
2023/03/01 12:38:52;;;;;;;;;;;17.80;45.70;;;;;;10412682;28;1898;-79
2023/03/01 12:43:47;;;;;;;;;;;17.90;45.70;;;;;;10411949;28;896;-79
2023/03/01 12:48:42;;;;;;;;;;;17.90;45.70;;;;;;10411425;28;1119;-78
2023/03/01 12:53:38;;;;;;;;;;;17.90;45.60;;;;;;10411503;28;916;-79
2023/03/01 12:58:33;;;;;;;;;;;18.00;45.70;;;;;;10411270;28;1917;-79
2023/03/01 13:03:28;;;;;;;;;;;18.00;45.60;;;;;;10411136;28;1103;-79
2023/03/01 13:08:24;;;;;;;;;;;18.00;45.60;;;;;;10410883;28;960;-79
2023/03/01 13:13:19;;;;;;;;;;;18.10;45.60;;;;;;10411269;28;862;-79
2023/03/01 13:18:15;;;;;;;;;;;18.10;45.50;;;;;;10410637;28;1909;-79
2023/03/01 13:23:10;;;;;;;;;;;18.20;45.50;;;;;;10409489;28;872;-71
2023/03/01 13:28:05;;;;;;;;;;;18.30;45.40;;;;;;10410165;28;945;-74
2023/03/01 13:33:01;;;;;;;;;;;18.40;45.10;;;;;;10410531;28;849;-74
2023/03/01 13:37:56;;;;;;;;;;;18.50;44.90;;;;;;10409672;28;1960;-74
2023/03/01 13:42:52;;;;;;;;;;;18.50;45.00;;;;;;10409533;28;806;-73
2023/03/01 13:47:49;;;;;;;;;;;18.60;44.90;;;;;;10408899;28;1214;-74
2023/03/01 13:52:44;;;;;;;;;;;18.70;44.80;;;;;;10409243;28;829;-74
2023/03/01 13:57:39;;;;;;;;;;;18.70;44.80;;;;;;10408667;28;1913;-74
2023/03/01 14:02:36;;;;;;;;;;;18.80;44.80;;;;;;10409186;28;857;-74
2023/03/01 14:07:31;;;;;;;;;;;18.80;44.70;;;;;;10408449;27;802;-74
2023/03/01 14:12:27;;;;;;;;;;;18.90;44.70;;;;;;10408398;28;1623;-73
2023/03/01 14:17:22;;;;;;;;;;;18.90;44.80;;;;;;10408046;28;953;-73
2023/03/01 14:22:17;;;;;;;;;;;19.00;44.60;;;;;;10407981;28;1961;-73
2023/03/01 14:27:13;;;;;;;;;;;19.10;44.50;;;;;;10407247;28;1016;-74
2023/03/01 14:32:08;;;;;;;;;;;19.10;44.60;;;;;;10407712;28;946;-73
2023/03/01 14:37:04;;;;;;;;;;;19.10;44.40;;;;;;10407438;28;1039;-74
2023/03/01 14:41:59;;;;;;;;;;;19.10;44.50;;;;;;10408079;28;1972;-73
2023/03/01 14:46:54;;;;;;;;;;;19.20;44.50;;;;;;10407440;28;913;-73
2023/03/01 14:51:50;;;;;;;;;;;19.20;44.30;;;;;;10408114;28;1064;-73
2023/03/01 14:56:45;;;;;;;;;;;19.30;44.30;;;;;;10407783;28;925;-73
2023/03/01 15:01:41;;;;;;;;;;;19.30;44.20;;;;;;10407072;28;1882;-74
2023/03/01 15:06:36;;;;;;;;;;;19.30;44.20;;;;;;10407377;28;840;-74
2023/03/01 15:11:32;;;;;;;;;;;19.40;44.20;;;;;;10407233;28;886;-74
2023/03/01 15:16:27;;;;;;;;;;;19.30;44.10;;;;;;10407135;28;928;-74
2023/03/01 15:21:26;;;;;;;;;;;19.40;44.10;;;;;;10407098;28;1965;-74
2023/03/01 15:26:22;;;;;;;;;;;19.40;43.90;;;;;;10406995;28;776;-73
2023/03/01 15:31:18;;;;;;;;;;;19.50;44.00;;;;;;10407485;28;813;-73
2023/03/01 15:36:13;;;;;;;;;;;19.50;43.90;;;;;;10406730;28;857;-73
2023/03/01 15:41:08;;;;;;;;;;;19.50;43.90;;;;;;10407194;28;1955;-73
2023/03/01 15:46:04;;;;;;;;;;;19.50;43.70;;;;;;10408093;28;983;-74
2023/03/01 15:50:59;;;;;;;;;;;19.50;43.80;;;;;;10414486;28;1163;-74
2023/03/01 15:55:54;;;;;;;;;;;19.50;43.80;;;;;;10413913;28;954;-74
2023/03/01 16:00:55;;;;;;;;;;;19.50;43.80;;;;;;10413607;28;1914;-74
2023/03/01 16:05:50;;;;;;;;;;;19.50;43.80;;;;;;10414238;28;817;-74
2023/03/01 16:10:48;;;;;;;;;;;19.40;43.90;;;;;;10413262;28;826;-74
2023/03/01 16:15:43;;;;;;;;;;;19.30;44.00;;;;;;10413676;28;955;-74
2023/03/01 16:20:39;;;;;;;;;;;19.20;44.00;;;;;;10412352;28;1901;-75
2023/03/01 16:25:34;;;;;;;;;;;19.20;44.10;;;;;;10412646;28;869;-74
2023/03/01 16:30:29;;;;;;;;;;;19.10;44.20;;;;;;10411281;28;833;-74
2023/03/01 16:35:25;;;;;;;;;;;19.00;44.20;;;;;;10412926;28;884;-74
2023/03/01 16:40:20;;;;;;;;;;;19.00;44.30;;;;;;10412336;28;1910;-74
2023/03/01 16:45:16;;;;;;;;;;;18.90;44.20;;;;;;10411918;28;845;-74
2023/03/01 16:50:11;;;;;;;;;;;18.90;44.30;;;;;;10411772;28;1524;-74
2023/03/01 16:55:06;;;;;;;;;;;18.90;44.30;;;;;;10411519;28;957;-74
2023/03/01 17:00:04;;;;;;;;;;;18.90;44.30;;;;;;10411201;28;1910;-74
2023/03/01 17:05:00;;;;;;;;;;;18.90;44.40;;;;;;10411078;27;938;-74
2023/03/01 17:09:55;;;;;;;;;;;18.90;44.40;;;;;;10411605;28;822;-74
2023/03/01 17:14:50;;;;;;;;;;;18.90;44.40;;;;;;10410813;28;936;-74
2023/03/01 17:19:46;;;;;;;;;;;18.90;44.40;;;;;;10411108;28;1972;-74
2023/03/01 17:24:41;;;;;;;;;;;18.90;44.30;;;;;;10410352;28;818;-74
2023/03/01 17:29:37;;;;;;;;;;;18.80;44.10;;;;;;10410168;28;751;-74
2023/03/01 17:34:32;;;;;;;;;;;18.80;43.90;;;;;;10410845;28;836;-74
2023/03/01 17:39:34;;;;;;;;;;;18.90;43.80;;;;;;10409603;28;1901;-74
2023/03/01 17:44:31;;;;;;;;;;;18.90;43.80;;;;;;10410167;28;1101;-76
2023/03/01 17:49:26;;;;;;;;;;;18.90;43.70;;;;;;10409425;28;1130;-74
2023/03/01 17:54:22;;;;;;;;;;;18.90;43.70;;;;;;10409213;28;806;-74
2023/03/01 17:59:17;;;;;;;;;;;18.90;43.70;;;;;;10408957;28;2027;-75
2023/03/01 18:04:12;;;;;;;;;;;18.80;43.80;;;;;;10408958;28;807;-74
2023/03/01 18:09:08;;;;;;;;;;;18.90;43.80;;;;;;10408253;28;947;-75
2023/03/01 18:14:03;;;;;;;;;;;18.90;43.80;;;;;;10408544;28;799;-75
2023/03/01 18:18:59;;;;;;;;;;;18.90;44.40;;;;;;10408324;28;1906;-74
2023/03/01 18:23:54;;;;;;;;;;;18.90;43.80;;;;;;10408191;28;833;-74
2023/03/01 18:28:50;;;;;;;;;;;18.90;43.70;;;;;;10408047;28;796;-74
2023/03/01 18:33:45;;;;;;;;;;;18.90;43.70;;;;;;10408531;28;876;-74
2023/03/01 18:38:41;;;;;;;;;;;18.90;43.80;;;;;;10408003;28;1906;-75
2023/03/01 18:43:36;;;;;;;;;;;18.80;43.80;;;;;;10408395;28;935;-74
2023/03/01 18:48:32;;;;;;;;;;;18.90;43.90;;;;;;10408006;28;1224;-74
2023/03/01 18:53:27;;;;;;;;;;;18.90;43.90;;;;;;10407598;28;778;-74
2023/03/01 18:58:23;;;;;;;;;;;18.90;44.00;;;;;;10407993;28;1979;-75
2023/03/01 19:03:18;;;;;;;;;;;18.90;44.00;;;;;;10407393;28;851;-74
2023/03/01 19:08:14;;;;;;;;;;;18.90;44.00;;;;;;10408384;28;878;-74
2023/03/01 19:13:10;;;;;;;;;;;18.90;44.60;;;;;;10407771;28;858;-74
2023/03/01 19:18:05;;;;;;;;;;;18.90;44.00;;;;;;10407035;28;1969;-74
2023/03/01 19:23:00;;;;;;;;;;;18.90;44.00;;;;;;10411962;28;935;-77
2023/03/01 19:27:56;;;;;;;;;;;18.90;44.00;;;;;;10415079;28;785;-80
2023/03/01 19:32:51;;;;;;;;;;;18.90;44.10;;;;;;10414863;28;773;-75
2023/03/01 19:37:46;;;;;;;;;;;18.90;44.20;;;;;;10415198;28;1901;-75
2023/03/01 19:42:42;;;;;;;;;;;18.90;44.30;;;;;;10415100;28;790;-76
2023/03/01 19:47:37;;;;;;;;;;;18.90;44.30;;;;;;10413389;28;1244;-76
2023/03/01 19:52:32;;;;;;;;;;;18.80;44.30;;;;;;10414827;28;924;-81
2023/03/01 19:57:28;;;;;;;;;;;18.80;44.30;;;;;;10413934;28;752;-74
2023/03/01 20:02:23;;;;;;;;;;;18.90;44.40;;;;;;10413564;28;1906;-75
2023/03/01 20:07:19;;;;;;;;;;;18.80;44.30;;;;;;10414105;28;822;-75
2023/03/01 20:12:14;;;;;;;;;;;18.80;44.40;;;;;;10413534;28;853;-75
2023/03/01 20:17:09;;;;;;;;;;;19.00;44.40;;;;;;10413110;28;763;-75
2023/03/01 20:22:05;;;;;;;;;;;18.90;44.30;;;;;;10412848;28;1897;-75
2023/03/01 20:27:00;;;;;;;;;;;18.90;44.40;;;;;;10412734;28;838;-75
2023/03/01 20:31:55;;;;;;;;;;;18.90;44.40;;;;;;10411576;28;916;-75
2023/03/01 20:36:51;;;;;;;;;;;18.90;44.40;;;;;;10413054;28;912;-75
2023/03/01 20:41:46;;;;;;;;;;;18.90;44.40;;;;;;10411384;28;1894;-75
2023/03/01 20:46:42;;;;;;;;;;;18.90;44.50;;;;;;10412553;28;834;-75
2023/03/01 20:51:37;;;;;;;;;;;18.90;44.60;;;;;;10411264;28;1531;-75
2023/03/01 20:56:32;;;;;;;;;;;18.80;44.60;;;;;;10412071;28;936;-75
2023/03/01 21:01:28;;;;;;;;;;;18.80;44.60;;;;;;10411864;28;1913;-75
2023/03/01 21:06:23;;;;;;;;;;;18.80;44.70;;;;;;10411821;28;798;-75
2023/03/01 21:11:19;;;;;;;;;;;18.80;44.70;;;;;;10410893;28;829;-75
2023/03/01 21:16:14;;;;;;;;;;;18.80;44.60;;;;;;10410770;28;771;-75
2023/03/01 21:21:10;;;;;;;;;;;18.80;44.60;;;;;;10410492;28;1901;-78
2023/03/01 21:26:05;;;;;;;;;;;18.80;44.60;;;;;;10410954;28;891;-75
2023/03/01 21:31:00;;;;;;;;;;;18.80;44.60;;;;;;10410162;28;763;-75
2023/03/01 21:35:56;;;;;;;;;;;18.80;44.60;;;;;;10410671;28;822;-75
2023/03/01 21:40:51;;;;;;;;;;;18.70;44.50;;;;;;10409716;28;1949;-75
2023/03/01 21:45:47;;;;;;;;;;;18.70;44.50;;;;;;10408817;28;872;-75
2023/03/01 21:50:42;;;;;;;;;;;18.70;45.10;;;;;;10409879;28;1147;-75
2023/03/01 21:55:38;;;;;;;;;;;18.80;44.60;;;;;;10409837;28;778;-75
2023/03/01 22:00:38;;;;;;;;;;;18.80;44.50;;;;;;10408892;28;1977;-75
2023/03/01 22:05:34;;;;;;;;;;;18.80;44.60;;;;;;10409931;28;817;-75
2023/03/01 22:10:29;;;;;;;;;;;18.70;44.60;;;;;;10408633;28;969;-76
2023/03/01 22:15:24;;;;;;;;;;;18.80;44.70;;;;;;10408460;28;751;-75
2023/03/01 22:20:20;;;;;;;;;;;18.80;44.70;;;;;;10408819;28;1914;-76
2023/03/01 22:25:15;;;;;;;;;;;18.70;44.50;;;;;;10409323;28;841;-75
2023/03/01 22:30:10;;;;;;;;;;;18.70;44.50;;;;;;10408113;28;991;-75
2023/03/01 22:35:06;;;;;;;;;;;18.70;44.60;;;;;;10407900;28;849;-76
2023/03/01 22:40:01;;;;;;;;;;;18.70;44.70;;;;;;10408382;28;1910;-75
2023/03/01 22:44:57;;;;;;;;;;;18.70;44.60;;;;;;10407763;28;846;-75
2023/03/01 22:49:53;;;;;;;;;;;18.70;44.70;;;;;;10407429;28;1428;-75
2023/03/01 22:54:48;;;;;;;;;;;18.70;44.70;;;;;;10409032;28;760;-75
2023/03/01 22:59:43;;;;;;;;;;;18.60;44.60;;;;;;10416054;28;1910;-75
2023/03/01 23:04:39;;;;;;;;;;;18.60;44.70;;;;;;10416777;28;870;-75
2023/03/01 23:09:34;;;;;;;;;;;18.60;44.70;;;;;;10416394;28;874;-75
2023/03/01 23:14:29;;;;;;;;;;;18.60;44.80;;;;;;10415630;28;768;-75
2023/03/01 23:19:25;;;;;;;;;;;18.60;44.80;;;;;;10415981;28;1906;-75
2023/03/01 23:24:20;;;;;;;;;;;18.60;44.70;;;;;;10415257;28;830;-75
2023/03/01 23:29:16;;;;;;;;;;;18.60;44.80;;;;;;10414403;28;1039;-75
2023/03/01 23:34:11;;;;;;;;;;;18.60;44.80;;;;;;10415488;28;885;-75
2023/03/01 23:39:06;;;;;;;;;;;18.60;44.80;;;;;;10414571;28;1901;-75
2023/03/01 23:44:02;;;;;;;;;;;18.60;44.80;;;;;;10415044;28;852;-75
2023/03/01 23:48:57;;;;;;;;;;;18.60;44.80;;;;;;10414631;28;1242;-75
2023/03/01 23:53:53;;;;;;;;;;;18.60;44.70;;;;;;10414086;28;969;-85
2023/03/01 23:58:49;;;;;;;;;;;18.60;44.70;;;;;;10413786;28;1950;-74
